Главная страница
METAR-TAF:

METAR-TAF

Аэропорты :

Сиань, Китай

широта: 34-26N, долгота: 108-45E, высота над уровнем моря: 479 м

Текущие метеонаблюдения

Эта сводка был подготовлена 1 час и 1 минут назад, в 06:00 UTC
Ветер 8 Узел от восточно-северо-восточный, изменяющийся между северный и восточно-юго-восточный
Температура 11°C
Влажность 66%
Давление 1015 hPa
Видимость: 2500 м
мгла

METAR: ZLXY 130600Z 07004MPS 010V120 2500 HZ NSC 11/05 Q1015 BECMG TL0640 3000

Время: 15:01 (07:01 UTC)

Прогноз

Эта сводка был подготовлена 3 часа и 58 минут назад, в 03:03 UTC
Прогноз действительный с 13-го 06 UTC до 14-го 06 UTC
Ветер 6 Узел от восточно-северо-восточный
Видимость: 2800 м
дымка
изменения
С 13-го 15 UTC до 13-го 16 UTC
Видимость: 1400 м
дымка
изменения
С 14-го 02 UTC до 14-го 03 UTC
Видимость: 2000 м

TAF: ZLXY 130303Z 1306/1406 06003MPS 2800 BR NSC TX15/1307Z TN02/1323Z BECMG 1315/1316 1400 BR BECMG 1402/1403 2000

Метеонаблюдения и прогнозы для более 4000 аэропортов (сводки METAR и TAF).

Имеющиеся станции представлены на карте желтыми и красными точками.

Чтобы увидеть название станции, наведите на нее мышь.

Затем щелкните, чтобы увидеть метеонаблюдения и метеопрогнозы.

Управление картой: чтобы увеличить масштаб, щелкните зеленые кнопки с черным крестиком; чтобы уменьшить масштаб, щелкните зеленую кнопку с тире; для просмотра соседних карт щелкайте зеленые стрелки.


METAR-TAF: